Time;durP1;ratioP1;P1;durP2;ratioP2;P2;SDS_P1;SDS_P2;PMS_P1;PMS_P2;Temp;Humidity;BMP_temperature;BMP_pressure;BME280_temperature;BME280_humidity;BME280_pressure;Samples;Min_cycle;Max_cycle;Signal;HPM_P1;HPM_P2
2022/08/20 00:00:06;;;;;;;13.57;10.27;;;;;;;25.54;60.91;101574.47;5012513;28;20042;-72
2022/08/20 00:02:43;;;;;;;14.10;9.95;;;;;;;25.57;60.74;101576.63;5012267;28;20046;-73
2022/08/20 00:05:09;;;;;;;15.93;8.88;;;;;;;25.36;61.25;101567.09;4994623;28;20042;-72
2022/08/20 00:07:35;;;;;;;12.52;9.23;;;;;;;25.34;61.24;101574.84;5012713;28;20940;-72
2022/08/20 00:10:00;;;;;;;14.48;9.38;;;;;;;25.22;60.89;101569.84;4994718;28;20034;-72
2022/08/20 00:12:26;;;;;;;22.58;10.15;;;;;;;25.32;60.89;101574.38;5012230;28;20048;-72
2022/08/20 00:14:51;;;;;;;18.85;9.23;;;;;;;25.23;61.38;101583.31;5012239;28;20072;-73
2022/08/20 00:17:16;;;;;;;14.20;8.25;;;;;;;25.09;61.79;101574.25;5011873;28;20509;-71
2022/08/20 00:19:42;;;;;;;13.98;9.35;;;;;;;25.47;60.46;101574.06;5012055;28;20037;-72
2022/08/20 00:22:07;;;;;;;13.88;9.35;;;;;;;25.40;60.41;101571.72;5012533;28;20045;-72
2022/08/20 00:24:33;;;;;;;15.80;8.32;;;;;;;25.46;60.51;101564.16;4994787;28;20086;-72
2022/08/20 00:26:59;;;;;;;20.00;8.52;;;;;;;25.10;61.43;101570.34;5012277;28;20088;-73
2022/08/20 00:29:24;;;;;;;16.60;7.97;;;;;;;25.01;61.55;101582.38;5012253;28;20037;-71
2022/08/20 00:31:49;;;;;;;17.05;7.97;;;;;;;25.38;61.14;101582.19;4993900;28;20047;-71
2022/08/20 00:34:15;;;;;;;15.27;8.45;;;;;;;25.39;60.50;101580.25;5014680;28;20610;-69
2022/08/20 00:36:40;;;;;;;18.02;8.30;;;;;;;25.27;60.76;101578.03;5016021;28;20033;-71
2022/08/20 00:39:06;;;;;;;23.63;9.30;;;;;;;25.35;60.96;101576.50;5016030;28;20371;-72
2022/08/20 00:41:31;;;;;;;15.00;8.30;;;;;;;25.38;60.63;101573.94;5015646;28;20057;-72
2022/08/20 00:43:59;;;;;;;18.77;8.93;;;;;;;25.49;60.80;101563.56;5015307;28;20038;-71
2022/08/20 00:46:27;;;;;;;20.42;9.05;;;;;;;25.54;60.66;101572.53;5015081;28;20053;-72
2022/08/20 00:48:54;;;;;;;15.43;8.73;;;;;;;25.57;60.27;101569.16;4998161;28;20053;-72
2022/08/20 00:51:38;;;;;;;14.30;8.20;;;;;;;25.26;60.87;101565.38;5000945;28;20395;-71
2022/08/20 00:54:28;;;;;;;13.63;8.23;;;;;;;25.56;60.28;101572.22;4996116;28;20394;-72
2022/08/20 00:56:58;;;;;;;17.80;8.63;;;;;;;25.44;60.17;101569.16;4995317;28;20038;-72
2022/08/20 00:59:26;;;;;;;18.63;7.28;;;;;;;24.73;61.93;101573.25;4995202;28;20126;-72
2022/08/20 01:01:52;;;;;;;20.35;7.38;;;;;;;25.32;60.61;101577.13;4994982;28;20122;-72
2022/08/20 01:04:18;;;;;;;16.80;7.43;;;;;;;25.14;61.38;101578.81;4995165;28;20128;-72
2022/08/20 01:06:43;;;;;;;12.93;6.75;;;;;;;25.22;60.51;101578.94;4995655;28;20033;-72
2022/08/20 01:09:10;;;;;;;16.67;7.57;;;;;;;24.92;61.33;101579.50;4995082;28;20053;-72
2022/08/20 01:11:36;;;;;;;15.55;7.20;;;;;;;24.69;61.72;101579.59;4994749;28;20061;-72
2022/08/20 01:14:37;;;;;;;16.73;7.45;;;;;;;24.87;61.37;101585.09;4994778;28;20038;-71
2022/08/20 01:16:59;;;;;;;15.93;7.63;;;;;;;24.96;60.84;101577.78;5007610;28;20037;-71
2022/08/20 01:19:38;;;;;;;16.73;7.15;;;;;;;25.02;60.84;101581.25;5014624;28;20070;-72
2022/08/20 01:23:25;;;;;;;10.73;7.23;;;;;;;25.13;60.83;101585.44;5015143;28;20057;-71
2022/08/20 01:25:00;;;;;;;14.70;7.55;;;;;;;25.33;60.26;101589.75;5014342;28;20458;-72
2022/08/20 01:27:26;;;;;;;14.30;7.00;;;;;;;25.41;60.10;101603.66;4996599;28;20063;-73
2022/08/20 01:29:52;;;;;;;18.88;7.53;;;;;;;25.24;60.74;101606.13;5013441;28;20042;-72
2022/08/20 01:32:18;;;;;;;18.08;8.70;;;;;;;25.17;61.02;101600.22;5013189;28;20111;-72
2022/08/20 01:34:43;;;;;;;18.23;8.60;;;;;;;25.41;60.33;101611.06;5013114;28;20053;-73
2022/08/20 01:37:09;;;;;;;17.95;8.70;;;;;;;25.34;60.42;101605.13;5013813;28;20037;-72
2022/08/20 01:39:35;;;;;;;15.27;9.50;;;;;;;25.40;60.08;101606.69;4999704;28;20039;-72
2022/08/20 01:42:36;;;;;;;15.68;9.32;;;;;;;25.18;60.57;101607.34;4995262;28;20043;-71
2022/08/20 01:45:02;;;;;;;15.32;8.48;;;;;;;24.86;61.81;101605.47;4932843;29;20160;-72
2022/08/20 01:47:31;;;;;;;14.43;9.25;;;;;;;24.98;61.49;101605.00;4933152;29;20072;-72
2022/08/20 01:50:22;;;;;;;14.25;8.90;;;;;;;25.32;60.65;101599.13;4933628;29;20086;-72
2022/08/20 01:52:57;;;;;;;26.63;10.10;;;;;;;25.26;60.57;101603.88;4933939;29;20065;-72
2022/08/20 01:55:23;;;;;;;17.83;9.68;;;;;;;25.10;60.63;101600.63;4933693;29;20050;-73
2022/08/20 01:57:48;;;;;;;22.95;10.40;;;;;;;25.15;60.61;101594.22;4934072;29;20040;-72
2022/08/20 02:00:16;;;;;;;17.42;9.32;;;;;;;24.97;61.32;101595.91;4933800;29;20243;-72
2022/08/20 02:02:42;;;;;;;17.27;8.80;;;;;;;25.27;60.13;101589.03;4933614;29;20031;-72
2022/08/20 02:05:08;;;;;;;18.05;9.55;;;;;;;25.25;60.16;101594.84;4933645;29;20583;-72
2022/08/20 02:07:33;;;;;;;14.23;9.10;;;;;;;25.21;60.61;101593.00;4933672;28;20123;-71
2022/08/20 02:09:59;;;;;;;25.02;9.57;;;;;;;25.28;60.50;101598.91;4933953;29;20094;-72
2022/08/20 02:12:25;;;;;;;21.98;8.73;;;;;;;25.28;60.30;101601.66;4933286;29;20084;-72
2022/08/20 02:14:53;;;;;;;23.00;9.40;;;;;;;25.35;60.40;101595.75;4933125;29;20048;-72
2022/08/20 02:17:21;;;;;;;17.92;9.40;;;;;;;25.36;60.79;101602.88;4933354;29;20040;-71
2022/08/20 02:19:53;;;;;;;21.58;9.63;;;;;;;25.33;60.74;101598.00;4933443;29;20039;-72
2022/08/20 02:22:34;;;;;;;23.52;9.00;;;;;;;25.43;60.13;101608.84;4987938;28;20383;-71
2022/08/20 02:24:59;;;;;;;27.35;10.38;;;;;;;25.30;60.53;101613.16;4994231;28;20030;-72
2022/08/20 02:27:25;;;;;;;16.23;10.52;;;;;;;25.35;60.49;101610.34;4993604;28;20046;-72
2022/08/20 02:29:51;;;;;;;18.17;9.35;;;;;;;25.36;60.61;101614.69;4993724;28;20656;-71
2022/08/20 02:32:18;;;;;;;16.17;9.63;;;;;;;25.09;61.11;101620.19;4993608;28;20081;-72
2022/08/20 02:34:44;;;;;;;21.83;10.10;;;;;;;25.08;61.51;101613.06;5006532;28;20041;-72
2022/08/20 02:37:13;;;;;;;16.80;9.38;;;;;;;25.26;60.51;101606.66;5013497;28;20037;-73
2022/08/20 02:39:39;;;;;;;20.37;9.13;;;;;;;25.28;60.40;101607.16;4999928;28;20100;-73
2022/08/20 02:42:05;;;;;;;18.10;9.27;;;;;;;25.34;60.03;101605.13;4993452;28;20775;-72
2022/08/20 02:44:31;;;;;;;18.25;9.82;;;;;;;25.34;60.41;101607.88;5012615;28;20110;-71
2022/08/20 02:46:57;;;;;;;16.98;8.70;;;;;;;25.40;60.32;101604.75;5013186;28;20449;-72
2022/08/20 02:49:22;;;;;;;14.63;8.60;;;;;;;25.23;60.40;101604.50;5012897;28;20024;-71
2022/08/20 02:51:48;;;;;;;16.75;9.15;;;;;;;25.13;60.26;101605.53;5013257;28;20081;-73
2022/08/20 02:54:14;;;;;;;16.02;9.07;;;;;;;24.88;61.15;101608.75;5012536;28;20046;-71
2022/08/20 02:56:40;;;;;;;19.35;9.30;;;;;;;24.73;61.44;101608.97;5011944;28;20041;-71
2022/08/20 02:59:06;;;;;;;20.13;9.38;;;;;;;24.87;61.16;101609.84;5012493;28;20505;-72
2022/08/20 03:01:32;;;;;;;21.05;9.18;;;;;;;25.09;60.45;101610.00;5012842;28;20120;-71
2022/08/20 03:03:58;;;;;;;20.58;10.13;;;;;;;25.18;60.37;101604.59;5013228;28;20535;-72
2022/08/20 03:06:25;;;;;;;20.23;9.93;;;;;;;25.16;60.76;101615.91;5012670;28;20065;-71
2022/08/20 03:08:50;;;;;;;27.48;10.43;;;;;;;25.25;60.63;101611.34;5012665;28;20370;-72
2022/08/20 03:11:17;;;;;;;20.33;10.82;;;;;;;25.24;60.60;101612.47;5012363;28;20046;-71
2022/08/20 03:13:43;;;;;;;20.90;10.82;;;;;;;25.35;60.10;101617.78;5012580;28;20041;-72
2022/08/20 03:16:08;;;;;;;19.02;9.90;;;;;;;25.01;61.62;101610.69;5013267;28;20088;-72
2022/08/20 03:18:38;;;;;;;14.43;10.68;;;;;;;25.28;60.45;101616.22;5012289;28;20124;-71
2022/08/20 03:21:06;;;;;;;24.20;10.65;;;;;;;25.34;60.19;101613.38;5012425;28;20030;-72
2022/08/20 03:23:32;;;;;;;22.40;10.02;;;;;;;25.36;60.01;101614.69;5012246;28;20042;-72
2022/08/20 03:25:58;;;;;;;19.75;10.05;;;;;;;25.43;60.20;101612.41;4994786;28;20042;-72
2022/08/20 03:28:24;;;;;;;19.30;10.70;;;;;;;25.36;60.06;101617.47;5012409;28;20109;-72
2022/08/20 03:30:51;;;;;;;21.98;10.68;;;;;;;25.38;59.81;101614.38;5012989;28;20462;-71
2022/08/20 03:33:19;;;;;;;23.45;11.75;;;;;;;25.41;59.95;101614.66;5012237;28;20045;-71
2022/08/20 03:35:45;;;;;;;23.55;11.32;;;;;;;25.34;60.13;101605.13;5012488;28;20043;-72
2022/08/20 03:38:12;;;;;;;21.27;11.32;;;;;;;25.33;60.43;101609.00;5012286;28;20402;-71
2022/08/20 03:40:39;;;;;;;20.55;10.48;;;;;;;25.33;60.14;101609.00;5012250;28;20026;-72
2022/08/20 03:43:07;;;;;;;17.73;10.88;;;;;;;25.12;60.63;101611.31;5012384;28;20045;-72
2022/08/20 03:45:34;;;;;;;21.83;10.40;;;;;;;25.27;59.94;101611.03;5012022;28;20045;-74
2022/08/20 03:48:02;;;;;;;16.95;10.52;;;;;;;25.25;60.25;101621.53;5012241;28;20065;-72
2022/08/20 03:50:30;;;;;;;19.83;10.85;;;;;;;25.32;60.22;101626.66;5012063;28;20054;-72
2022/08/20 03:52:56;;;;;;;24.10;10.70;;;;;;;25.35;60.03;101623.28;5012293;28;20398;-71
2022/08/20 03:55:23;;;;;;;22.48;10.75;;;;;;;25.30;60.23;101623.38;5011916;28;20062;-72
2022/08/20 03:58:01;;;;;;;26.83;10.05;;;;;;;25.25;60.31;101619.59;5012535;28;20096;-72
2022/08/20 04:00:37;;;;;;;19.00;9.68;;;;;;;25.05;60.35;101628.22;5011993;28;20052;-73
2022/08/20 04:03:23;;;;;;;20.67;10.35;;;;;;;25.17;60.03;101625.00;5009886;28;20038;-72
2022/08/20 04:05:49;;;;;;;18.92;10.52;;;;;;;25.17;60.32;101627.75;4996773;28;20045;-71
2022/08/20 04:08:18;;;;;;;17.40;9.95;;;;;;;24.96;60.44;101631.97;4994007;28;20566;-71
2022/08/20 04:10:46;;;;;;;16.08;9.57;;;;;;;24.95;60.48;101625.66;5017148;28;20431;-70
2022/08/20 04:13:13;;;;;;;20.17;9.90;;;;;;;24.95;60.01;101630.34;5019453;28;20053;-72
2022/08/20 04:15:40;;;;;;;19.23;9.60;;;;;;;24.90;60.17;101630.44;5020805;28;20080;-71
2022/08/20 04:18:08;;;;;;;18.15;9.80;;;;;;;24.83;60.16;101622.56;5028216;28;20424;-71
2022/08/20 04:20:35;;;;;;;23.30;9.63;;;;;;;24.88;59.67;101630.75;5029580;28;20030;-71
2022/08/20 04:23:02;;;;;;;17.08;9.57;;;;;;;24.75;59.99;101634.25;5017649;28;20077;-72
2022/08/20 04:25:30;;;;;;;31.67;9.95;;;;;;;24.83;59.73;101632.75;5015191;28;20482;-72
2022/08/20 04:27:57;;;;;;;18.88;9.70;;;;;;;24.73;60.05;101630.97;5010061;28;20089;-71
2022/08/20 04:30:24;;;;;;;19.52;8.88;;;;;;;24.75;60.06;101631.50;5003397;28;20042;-71
2022/08/20 04:32:50;;;;;;;19.38;9.30;;;;;;;24.72;60.73;101632.09;5004574;28;20038;-71
2022/08/20 04:35:17;;;;;;;12.80;7.95;;;;;;;24.69;60.33;101637.34;5002248;28;20084;-72
2022/08/20 04:37:45;;;;;;;16.95;9.25;;;;;;;24.69;60.35;101640.09;5004571;28;20125;-72
2022/08/20 04:43:03;;;;;;;18.20;8.80;;;;;;;24.71;60.45;101646.09;5007013;28;20044;-72
2022/08/20 04:45:29;;;;;;;19.67;9.65;;;;;;;24.61;60.73;101641.59;5005669;28;20452;-73
2022/08/20 04:47:54;;;;;;;14.95;9.25;;;;;;;24.72;59.92;101645.84;5002928;28;20525;-72
2022/08/20 04:50:21;;;;;;;15.43;7.97;;;;;;;24.74;60.05;101640.88;5004817;28;20387;-73
2022/08/20 04:52:48;;;;;;;17.63;9.05;;;;;;;24.63;60.45;101646.81;4988636;28;20519;-72
2022/08/20 04:55:15;;;;;;;20.73;8.40;;;;;;;24.15;61.32;101654.38;5004494;28;20097;-72
2022/08/20 04:57:40;;;;;;;15.15;7.72;;;;;;;24.34;60.71;101655.19;5002228;28;20042;-72
2022/08/20 05:00:12;;;;;;;20.55;8.00;;;;;;;24.45;59.88;101658.63;5001920;28;20092;-73
2022/08/20 05:02:38;;;;;;;17.40;8.32;;;;;;;24.39;60.25;101658.69;5020671;28;20037;-71
2022/08/20 05:05:07;;;;;;;18.50;8.43;;;;;;;24.20;60.38;101671.63;5021549;28;20413;-73
2022/08/20 05:07:37;;;;;;;20.65;8.48;;;;;;;24.49;59.84;101665.97;5024607;28;20760;-71
2022/08/20 05:10:05;;;;;;;17.95;7.55;;;;;;;24.45;59.18;101661.38;4992463;28;20042;-72
2022/08/20 05:12:30;;;;;;;19.10;6.85;;;;;;;24.45;58.43;101666.88;5022438;28;20025;-72
2022/08/20 05:14:56;;;;;;;13.27;6.78;;;;;;;24.58;58.54;101679.84;5022981;28;20033;-72
2022/08/20 05:17:22;;;;;;;10.02;5.70;;;;;;;24.20;59.26;101674.34;5019930;28;20030;-72
2022/08/20 05:19:48;;;;;;;19.17;6.43;;;;;;;24.22;58.86;101671.31;5014372;28;20042;-71
2022/08/20 05:22:13;;;;;;;18.83;6.35;;;;;;;24.24;58.45;101682.81;5015503;28;20033;-70
2022/08/20 05:24:39;;;;;;;17.15;5.88;;;;;;;24.12;59.33;101682.44;5028841;28;20422;-72
2022/08/20 05:27:04;;;;;;;18.33;5.20;;;;;;;24.12;58.31;101674.19;5021497;28;20037;-72
2022/08/20 05:29:29;;;;;;;14.88;4.90;;;;;;;24.46;57.09;101688.56;5010810;28;20489;-71
2022/08/20 05:31:55;;;;;;;13.98;5.22;;;;;;;24.70;56.10;101689.28;5006464;28;20030;-72
2022/08/20 05:34:21;;;;;;;13.80;5.05;;;;;;;24.79;56.67;101690.28;5014307;28;20130;-71
2022/08/20 05:36:50;;;;;;;18.23;4.47;;;;;;;24.79;56.57;101687.53;5014615;28;20458;-72
2022/08/20 05:39:18;;;;;;;24.67;4.50;;;;;;;24.18;57.25;101694.97;5014102;28;20034;-72
2022/08/20 05:41:44;;;;;;;14.23;4.88;;;;;;;24.48;57.30;101693.75;5014056;28;20041;-72
2022/08/20 05:44:12;;;;;;;12.73;4.85;;;;;;;24.62;56.50;101683.66;5014023;28;20037;-72
2022/08/20 05:46:39;;;;;;;8.68;4.47;;;;;;;24.65;56.68;101689.34;5014103;28;20030;-72
2022/08/20 05:49:13;;;;;;;18.35;4.47;;;;;;;24.53;57.08;101688.19;5014497;28;20301;-72
2022/08/20 05:51:38;;;;;;;18.98;5.20;;;;;;;24.70;56.64;101693.97;5013915;28;20386;-71
2022/08/20 05:54:05;;;;;;;16.67;4.38;;;;;;;24.67;56.42;101692.63;5014008;28;20042;-72
2022/08/20 05:56:31;;;;;;;20.30;5.45;;;;;;;24.68;56.00;101687.94;4996042;28;20026;-72
2022/08/20 05:59:01;;;;;;;16.63;3.95;;;;;;;24.45;55.99;101686.09;5013946;28;20489;-72
2022/08/20 06:01:27;;;;;;;13.00;4.45;;;;;;;24.11;57.20;101692.63;5013910;28;20025;-72
2022/08/20 06:06:36;;;;;;;10.77;4.50;;;;;;;24.52;55.07;101700.28;5013772;28;20203;-72
2022/08/20 06:09:02;;;;;;;20.55;3.58;;;;;;;24.14;55.95;101693.94;5013611;28;20514;-73
2022/08/20 06:11:28;;;;;;;13.93;3.85;;;;;;;24.50;55.42;101703.34;5013470;28;20046;-72
2022/08/20 06:13:53;;;;;;;13.30;3.97;;;;;;;24.78;54.92;101707.06;5013709;28;20425;-72
2022/08/20 06:16:19;;;;;;;19.75;4.50;;;;;;;24.77;55.24;101705.41;5013650;28;20037;-70
2022/08/20 06:18:44;;;;;;;15.27;3.60;;;;;;;24.92;55.26;101703.25;5013939;28;20128;-72
2022/08/20 06:21:09;;;;;;;7.40;3.08;;;;;;;25.02;54.42;101705.84;5028390;28;20033;-72
2022/08/20 06:23:35;;;;;;;16.73;3.60;;;;;;;25.09;55.25;101705.47;5033085;28;20046;-71
2022/08/20 06:26:01;;;;;;;11.05;3.13;;;;;;;24.96;55.11;101706.25;5033385;28;20034;-71
2022/08/20 06:28:26;;;;;;;17.13;3.92;;;;;;;24.73;54.36;101696.97;5004042;28;20414;-72
2022/08/20 06:30:52;;;;;;;13.13;2.88;;;;;;;24.24;54.75;101693.81;5013779;28;20029;-72
2022/08/20 06:33:17;;;;;;;9.88;2.40;;;;;;;24.61;54.34;101702.06;5013703;28;20481;-72
2022/08/20 06:35:43;;;;;;;14.20;3.13;;;;;;;24.70;54.52;101702.22;5013297;28;20049;-71
2022/08/20 06:38:11;;;;;;;13.07;3.05;;;;;;;24.73;54.29;101709.88;5013328;28;20595;-71
2022/08/20 06:40:37;;;;;;;21.05;3.45;;;;;;;24.57;53.03;101711.22;5013444;28;20509;-71
2022/08/20 06:43:02;;;;;;;11.70;2.67;;;;;;;24.66;54.24;101713.00;5013514;28;20069;-71
2022/08/20 06:45:31;;;;;;;9.73;3.08;;;;;;;24.72;53.72;101709.09;5013185;28;20073;-71
2022/08/20 06:48:00;;;;;;;13.55;3.38;;;;;;;24.73;54.84;101709.88;5013111;28;20034;-72
2022/08/20 06:50:29;;;;;;;10.27;2.55;;;;;;;24.82;54.37;101719.09;5013258;28;20390;-72
2022/08/20 06:52:55;;;;;;;13.93;2.22;;;;;;;25.04;53.20;101716.56;5013273;28;20037;-71
2022/08/20 06:55:21;;;;;;;19.60;2.00;;;;;;;24.97;53.01;101724.34;5013149;28;20038;-73
2022/08/20 06:57:47;;;;;;;9.95;2.20;;;;;;;25.04;52.51;101711.06;5014073;28;20026;-72
2022/08/20 07:00:18;;;;;;;12.70;2.47;;;;;;;24.83;52.14;101721.56;5012936;28;20038;-71
2022/08/20 07:02:45;;;;;;;10.50;2.10;;;;;;;24.72;53.03;101722.84;5013116;28;20033;-72
2022/08/20 07:05:10;;;;;;;11.48;1.90;;;;;;;25.12;52.48;101726.84;5013086;28;20045;-71
2022/08/20 07:07:36;;;;;;;16.50;2.75;;;;;;;24.72;52.17;101730.22;5012795;28;20034;-71
2022/08/20 07:10:06;;;;;;;8.85;2.50;;;;;;;25.09;52.50;101733.78;4994852;28;20118;-70
2022/08/20 07:12:33;;;;;;;10.63;2.15;;;;;;;25.37;50.95;101722.84;5012612;28;20065;-73
2022/08/20 07:14:58;;;;;;;14.38;2.38;;;;;;;25.33;50.83;101728.16;5012945;28;20668;-72
2022/08/20 07:17:24;;;;;;;13.88;2.45;;;;;;;25.23;50.58;101729.16;5012368;28;20041;-72
2022/08/20 07:20:13;;;;;;;11.98;2.08;;;;;;;25.22;49.76;101734.94;5012259;28;20548;-71
2022/08/20 07:22:40;;;;;;;8.43;1.80;;;;;;;25.12;49.48;101729.59;5012865;28;20611;-71
2022/08/20 07:25:08;;;;;;;13.80;3.13;;;;;;;25.25;50.55;101728.84;4995561;28;20034;-73
2022/08/20 07:27:33;;;;;;;10.32;2.55;;;;;;;25.31;50.27;101726.81;5012867;28;20108;-72
2022/08/20 07:32:43;;;;;;;14.48;2.55;;;;;;;25.38;49.63;101730.81;5012525;28;20112;-72
2022/08/20 07:35:15;;;;;;;11.15;2.58;;;;;;;25.50;50.04;101736.69;5012361;28;20424;-71
2022/08/20 07:37:47;;;;;;;6.75;1.75;;;;;;;25.75;49.32;101735.41;4993659;28;20132;-72
2022/08/20 07:40:32;;;;;;;10.25;1.45;;;;;;;25.95;48.51;101740.50;5012835;28;20030;-72
2022/08/20 07:42:59;;;;;;;9.10;1.70;;;;;;;25.22;48.42;101740.44;5014176;28;20092;-73
2022/08/20 07:45:26;;;;;;;11.23;2.33;;;;;;;25.77;45.87;101741.41;5018329;28;20033;-73
2022/08/20 07:47:52;;;;;;;7.95;1.75;;;;;;;25.91;47.06;101742.22;5001252;28;20117;-72
2022/08/20 07:50:23;;;;;;;11.57;2.15;;;;;;;26.50;46.31;101750.38;5018794;28;20422;-73
2022/08/20 07:52:51;;;;;;;9.18;1.27;;;;;;;26.22;45.90;101740.50;5018942;28;20091;-72
2022/08/20 07:55:16;;;;;;;7.80;1.50;;;;;;;26.39;45.35;101745.38;5019159;28;20026;-71
2022/08/20 07:57:45;;;;;;;7.78;1.65;;;;;;;26.55;46.34;101733.72;5019661;28;20041;-71
2022/08/20 08:00:11;;;;;;;4.50;1.25;;;;;;;26.47;45.25;101730.88;5016798;28;20681;-73
2022/08/20 08:02:38;;;;;;;11.80;1.45;;;;;;;26.37;45.00;101731.09;5013371;28;20042;-72
2022/08/20 08:05:05;;;;;;;9.48;1.77;;;;;;;26.31;43.21;101730.41;5018822;28;20097;-72
2022/08/20 08:07:32;;;;;;;5.82;1.38;;;;;;;26.07;45.13;101727.88;5019056;28;20048;-72
2022/08/20 08:10:00;;;;;;;8.00;1.67;;;;;;;26.04;43.41;101724.91;5019694;28;20025;-72
2022/08/20 08:12:34;;;;;;;14.40;2.28;;;;;;;26.53;42.80;101727.72;5018881;28;20029;-72
2022/08/20 08:15:01;;;;;;;7.82;1.90;;;;;;;26.29;42.12;101731.81;5015887;28;20056;-73
2022/08/20 08:17:27;;;;;;;7.93;1.33;;;;;;;26.49;43.00;101728.63;5000600;28;20033;-72
2022/08/20 08:19:53;;;;;;;9.07;1.75;;;;;;;26.01;43.44;101736.50;5017954;28;20040;-72
2022/08/20 08:22:18;;;;;;;5.32;2.10;;;;;;;26.41;43.57;101735.69;5017963;28;20050;-70
2022/08/20 08:24:46;;;;;;;9.85;1.27;;;;;;;26.28;43.69;101725.50;5018750;28;20034;-72
2022/08/20 08:27:12;;;;;;;7.70;1.33;;;;;;;25.73;41.58;101734.88;5018929;28;20030;-72
2022/08/20 08:29:38;;;;;;;8.95;1.40;;;;;;;25.77;40.26;101739.47;5016947;28;20026;-73
2022/08/20 08:32:04;;;;;;;10.18;1.30;;;;;;;26.18;40.90;101739.47;5026552;28;20398;-73
2022/08/20 08:34:32;;;;;;;6.38;2.13;;;;;;;25.76;41.68;101742.53;5022362;28;20040;-72
2022/08/20 08:37:01;;;;;;;4.75;1.17;;;;;;;25.61;40.72;101748.34;5023837;28;20042;-72
2022/08/20 08:39:27;;;;;;;5.38;1.15;;;;;;;26.05;38.09;101746.63;5020372;28;20489;-73
2022/08/20 08:41:56;;;;;;;4.40;1.48;;;;;;;25.97;39.42;101750.09;5017134;28;20034;-73
2022/08/20 08:44:28;;;;;;;3.05;0.90;;;;;;;26.27;37.24;101748.69;5017715;28;20496;-73
2022/08/20 08:46:59;;;;;;;6.57;1.20;;;;;;;25.98;35.79;101748.94;5017039;28;20038;-72
2022/08/20 08:49:32;;;;;;;;;;;;;;;26.16;37.59;101747.28;5015425;28;20026;-72
2022/08/20 08:52:00;;;;;;;8.05;1.50;;;;;;;25.89;37.44;101756.31;5017017;28;20383;-72
2022/08/20 08:54:30;;;;;;;9.85;2.47;;;;;;;25.55;37.91;101761.34;5015575;28;20398;-70
2022/08/20 08:56:56;;;;;;;7.07;1.17;;;;;;;25.51;37.92;101762.28;5014709;28;20107;-70
2022/08/20 08:59:22;;;;;;;7.32;1.65;;;;;;;25.92;37.59;101758.47;5014599;28;20057;-70
2022/08/20 09:01:53;;;;;;;11.38;1.42;;;;;;;26.43;36.37;101755.50;5014768;28;20040;-70
2022/08/20 09:04:20;;;;;;;11.00;1.50;;;;;;;26.46;35.79;101757.63;5014779;28;20034;-70
2022/08/20 09:06:47;;;;;;;12.55;1.30;;;;;;;26.69;36.14;101766.78;5014868;28;20041;-71
2022/08/20 09:09:23;;;;;;;5.70;1.20;;;;;;;26.48;36.66;101777.44;5016872;28;20029;-71
2022/08/20 09:11:53;;;;;;;12.13;1.27;;;;;;;26.90;37.21;101779.00;5033973;28;20045;-70
2022/08/20 09:14:19;;;;;;;4.28;1.25;;;;;;;26.12;35.94;101775.75;5014404;28;20034;-71
2022/08/20 09:16:45;;;;;;;5.65;1.30;;;;;;;26.51;36.72;101776.84;5006628;28;20398;-71
2022/08/20 09:19:10;;;;;;;8.15;1.00;;;;;;;26.55;36.52;101766.81;5002048;28;20030;-69
2022/08/20 09:21:36;;;;;;;4.70;1.05;;;;;;;25.62;35.24;101780.22;5011974;28;20049;-69
2022/08/20 09:24:02;;;;;;;4.57;0.93;;;;;;;26.22;35.53;101776.31;5012247;28;20038;-69
2022/08/20 09:26:27;;;;;;;7.20;1.38;;;;;;;25.96;36.00;101783.47;5011416;28;20088;-69
2022/08/20 09:28:53;;;;;;;7.45;1.42;;;;;;;26.34;36.75;101775.84;5009720;28;20030;-69
2022/08/20 09:31:18;;;;;;;6.10;1.02;;;;;;;26.49;34.35;101779.09;5009059;28;20045;-69
2022/08/20 09:33:43;;;;;;;5.28;1.08;;;;;;;26.41;35.11;101777.03;5009883;28;20434;-69
2022/08/20 09:36:09;;;;;;;7.35;1.20;;;;;;;26.63;36.49;101774.31;5011293;28;20478;-68
2022/08/20 09:38:34;;;;;;;9.98;1.00;;;;;;;26.10;36.52;101773.28;5008972;28;20046;-70
2022/08/20 09:41:00;;;;;;;6.03;1.92;;;;;;;26.56;36.02;101786.91;5018379;28;20042;-70
2022/08/20 09:43:25;;;;;;;7.93;1.10;;;;;;;27.05;36.76;101784.16;5012020;28;20026;-70
2022/08/20 09:45:51;;;;;;;4.82;1.27;;;;;;;25.87;35.62;101779.75;5012577;28;20030;-69
2022/08/20 09:48:16;;;;;;;5.65;1.15;;;;;;;26.62;34.73;101782.91;5010422;28;20092;-70
2022/08/20 09:50:47;;;;;;;7.28;1.20;;;;;;;27.24;34.19;101779.28;5012257;28;20674;-70
2022/08/20 09:53:13;;;;;;;7.05;0.90;;;;;;;26.90;34.14;101773.50;5004125;28;20120;-70
2022/08/20 09:55:41;;;;;;;5.82;1.10;;;;;;;27.01;34.52;101772.09;5009656;28;20034;-69
2022/08/20 09:58:25;;;;;;;6.72;1.13;;;;;;;26.75;33.62;101777.41;5015942;28;20044;-69
2022/08/20 10:00:51;;;;;;;7.32;1.92;;;;;;;26.85;33.98;101781.88;5014498;28;20489;-69
2022/08/20 10:03:17;;;;;;;5.45;1.52;;;;;;;26.51;33.52;101778.75;5012686;28;20032;-69
2022/08/20 10:05:43;;;;;;;6.13;1.00;;;;;;;26.56;34.32;101784.16;5010597;28;20038;-69
2022/08/20 10:08:10;;;;;;;11.45;1.67;;;;;;;27.39;33.30;101783.63;5010892;28;20061;-69
2022/08/20 10:10:36;;;;;;;4.75;1.30;;;;;;;27.21;32.38;101781.84;5013331;28;20047;-70
2022/08/20 10:13:02;;;;;;;5.65;1.38;;;;;;;27.41;31.35;101771.16;5010683;28;20196;-70
2022/08/20 10:15:29;;;;;;;3.08;0.70;;;;;;;27.75;30.26;101774.06;5011403;28;20041;-70
2022/08/20 10:17:56;;;;;;;5.43;0.90;;;;;;;27.87;30.19;101781.81;5011435;28;20662;-69
2022/08/20 10:20:22;;;;;;;6.50;1.05;;;;;;;28.24;30.39;101781.31;5011379;28;20038;-69
2022/08/20 10:22:48;;;;;;;6.07;1.27;;;;;;;27.81;31.26;101778.34;5011659;28;20048;-69
2022/08/20 10:25:15;;;;;;;9.25;1.25;;;;;;;26.73;32.54;101781.63;5012224;28;20033;-70
2022/08/20 10:27:41;;;;;;;7.57;1.45;;;;;;;26.80;32.18;101785.56;5009519;28;20037;-69
2022/08/20 10:30:07;;;;;;;6.70;1.13;;;;;;;27.20;31.14;101777.47;5000914;28;20038;-70
2022/08/20 10:32:32;;;;;;;3.97;0.65;;;;;;;27.70;30.96;101770.66;5009650;28;20045;-70
2022/08/20 10:34:58;;;;;;;9.20;0.95;;;;;;;28.45;30.90;101773.22;5011454;28;20176;-71
2022/08/20 10:37:24;;;;;;;5.82;1.45;;;;;;;28.73;31.32;101773.78;5004748;28;20488;-70
2022/08/20 10:39:50;;;;;;;12.63;2.35;;;;;;;28.22;32.91;101780.81;5011264;28;20076;-70
2022/08/20 10:42:16;;;;;;;7.40;1.88;;;;;;;27.45;33.18;101772.16;5016841;28;20041;-68
2022/08/20 10:44:41;;;;;;;6.95;1.38;;;;;;;28.05;33.98;101777.19;5021540;28;20705;-71
2022/08/20 10:47:20;;;;;;;4.22;1.25;;;;;;;27.91;33.48;101777.25;5007941;28;20049;-70
2022/08/20 10:49:46;;;;;;;8.23;1.10;;;;;;;27.57;32.38;101774.31;5007805;28;20033;-69
2022/08/20 10:52:12;;;;;;;8.73;2.20;;;;;;;27.40;33.17;101771.47;5012128;28;20038;-69
2022/08/20 10:54:40;;;;;;;10.90;2.28;;;;;;;27.58;33.34;101775.94;5008283;28;21230;-69
2022/08/20 10:57:17;;;;;;;5.57;1.27;;;;;;;27.47;33.13;101786.44;5010875;28;20029;-69
2022/08/20 10:59:45;;;;;;;5.32;1.00;;;;;;;28.14;32.52;101789.91;5023452;28;20048;-70
2022/08/20 11:02:11;;;;;;;9.05;0.93;;;;;;;28.73;30.75;101771.84;5012958;28;20037;-71
2022/08/20 11:04:37;;;;;;;6.20;1.40;;;;;;;28.97;32.00;101774.13;5010120;28;20112;-70
2022/08/20 11:07:12;;;;;;;8.52;1.20;;;;;;;29.24;31.38;101765.50;5009970;28;20060;-71
2022/08/20 11:09:37;;;;;;;10.50;1.35;;;;;;;29.29;31.75;101768.91;5016035;28;20490;-71
2022/08/20 11:12:03;;;;;;;5.93;1.13;;;;;;;29.06;30.81;101772.97;5010975;28;20137;-71
2022/08/20 11:14:28;;;;;;;5.95;1.80;;;;;;;28.99;31.60;101766.31;5010087;28;20050;-72
2022/08/20 11:16:54;;;;;;;8.20;1.45;;;;;;;28.50;32.98;101779.41;5009873;28;20379;-73
2022/08/20 11:19:19;;;;;;;8.57;1.50;;;;;;;28.97;32.17;101771.34;5005614;28;20038;-74
2022/08/20 11:21:45;;;;;;;9.38;1.77;;;;;;;28.50;32.35;101773.88;5009644;28;20038;-73
2022/08/20 11:24:10;;;;;;;7.35;1.60;;;;;;;28.25;34.38;101784.88;5009802;28;20048;-73
2022/08/20 11:26:36;;;;;;;4.63;1.13;;;;;;;28.14;34.47;101794.59;5012070;28;20045;-74
2022/08/20 11:29:02;;;;;;;11.07;1.55;;;;;;;28.04;34.42;101789.38;5013339;28;20030;-74